sensor_id;sensor_type;location;lat;lon;timestamp;P1;durP1;ratioP1;P2;durP2;ratioP2
173;SDS011;75;48.784;9.364;2022-11-27T00:01:17;111.80;;;44.47;;
173;SDS011;75;48.784;9.364;2022-11-27T00:03:45;121.23;;;43.07;;
173;SDS011;75;48.784;9.364;2022-11-27T00:06:14;123.50;;;44.57;;
173;SDS011;75;48.784;9.364;2022-11-27T00:08:42;118.17;;;45.87;;
173;SDS011;75;48.784;9.364;2022-11-27T00:11:12;144.90;;;49.67;;
173;SDS011;75;48.784;9.364;2022-11-27T00:13:40;133.67;;;49.23;;
173;SDS011;75;48.784;9.364;2022-11-27T00:16:07;132.20;;;46.40;;
173;SDS011;75;48.784;9.364;2022-11-27T00:18:35;126.10;;;46.10;;
173;SDS011;75;48.784;9.364;2022-11-27T00:21:06;122.83;;;44.67;;
173;SDS011;75;48.784;9.364;2022-11-27T00:23:34;115.00;;;45.50;;
173;SDS011;75;48.784;9.364;2022-11-27T00:26:02;133.73;;;46.47;;
173;SDS011;75;48.784;9.364;2022-11-27T00:28:29;120.10;;;44.00;;
173;SDS011;75;48.784;9.364;2022-11-27T00:31:00;129.47;;;43.27;;
173;SDS011;75;48.784;9.364;2022-11-27T00:33:28;106.33;;;43.10;;
173;SDS011;75;48.784;9.364;2022-11-27T00:35:55;97.03;;;40.87;;
173;SDS011;75;48.784;9.364;2022-11-27T00:38:22;102.60;;;42.37;;
173;SDS011;75;48.784;9.364;2022-11-27T00:40:50;119.13;;;43.37;;
173;SDS011;75;48.784;9.364;2022-11-27T00:43:17;108.53;;;42.57;;
173;SDS011;75;48.784;9.364;2022-11-27T00:45:48;130.67;;;45.20;;
173;SDS011;75;48.784;9.364;2022-11-27T00:48:15;120.67;;;44.13;;
173;SDS011;75;48.784;9.364;2022-11-27T00:50:42;127.10;;;43.43;;
173;SDS011;75;48.784;9.364;2022-11-27T00:53:10;96.67;;;39.40;;
173;SDS011;75;48.784;9.364;2022-11-27T00:55:37;100.43;;;40.33;;
173;SDS011;75;48.784;9.364;2022-11-27T00:58:04;103.33;;;39.43;;
173;SDS011;75;48.784;9.364;2022-11-27T01:00:32;72.03;;;34.40;;
173;SDS011;75;48.784;9.364;2022-11-27T01:02:59;107.87;;;40.20;;
173;SDS011;75;48.784;9.364;2022-11-27T01:05:27;96.63;;;37.37;;
173;SDS011;75;48.784;9.364;2022-11-27T01:07:54;70.93;;;34.77;;
173;SDS011;75;48.784;9.364;2022-11-27T01:10:21;81.83;;;36.83;;
173;SDS011;75;48.784;9.364;2022-11-27T01:12:49;93.20;;;40.20;;
173;SDS011;75;48.784;9.364;2022-11-27T01:15:16;67.80;;;33.90;;
173;SDS011;75;48.784;9.364;2022-11-27T01:17:44;61.53;;;33.30;;
173;SDS011;75;48.784;9.364;2022-11-27T01:20:11;96.93;;;40.90;;
173;SDS011;75;48.784;9.364;2022-11-27T01:22:38;104.77;;;38.50;;
173;SDS011;75;48.784;9.364;2022-11-27T01:25:06;81.83;;;35.43;;
173;SDS011;75;48.784;9.364;2022-11-27T01:27:34;95.00;;;39.70;;
173;SDS011;75;48.784;9.364;2022-11-27T01:30:01;108.07;;;41.30;;
173;SDS011;75;48.784;9.364;2022-11-27T01:32:28;84.93;;;38.10;;
173;SDS011;75;48.784;9.364;2022-11-27T01:34:56;111.63;;;41.17;;
173;SDS011;75;48.784;9.364;2022-11-27T01:37:23;92.67;;;37.90;;
173;SDS011;75;48.784;9.364;2022-11-27T01:39:50;110.73;;;41.13;;
173;SDS011;75;48.784;9.364;2022-11-27T01:42:18;131.80;;;41.50;;
173;SDS011;75;48.784;9.364;2022-11-27T01:44:46;95.53;;;40.80;;
173;SDS011;75;48.784;9.364;2022-11-27T01:47:16;75.77;;;37.23;;
173;SDS011;75;48.784;9.364;2022-11-27T01:49:49;81.10;;;37.60;;
173;SDS011;75;48.784;9.364;2022-11-27T01:52:21;110.07;;;39.70;;
173;SDS011;75;48.784;9.364;2022-11-27T01:55:00;105.60;;;38.17;;
173;SDS011;75;48.784;9.364;2022-11-27T01:57:32;93.13;;;36.30;;
173;SDS011;75;48.784;9.364;2022-11-27T02:00:03;96.27;;;36.40;;
173;SDS011;75;48.784;9.364;2022-11-27T02:02:31;116.03;;;40.93;;
173;SDS011;75;48.784;9.364;2022-11-27T02:04:58;105.43;;;38.80;;
173;SDS011;75;48.784;9.364;2022-11-27T02:07:34;100.93;;;38.30;;
173;SDS011;75;48.784;9.364;2022-11-27T02:10:03;67.60;;;33.90;;
173;SDS011;75;48.784;9.364;2022-11-27T02:12:36;70.27;;;29.37;;
173;SDS011;75;48.784;9.364;2022-11-27T02:15:10;108.67;;;38.13;;
173;SDS011;75;48.784;9.364;2022-11-27T02:28:39;96.20;;;38.50;;
173;SDS011;75;48.784;9.364;2022-11-27T02:30:45;93.73;;;38.70;;
173;SDS011;75;48.784;9.364;2022-11-27T02:33:14;82.20;;;36.53;;
173;SDS011;75;48.784;9.364;2022-11-27T02:35:46;88.20;;;36.40;;
173;SDS011;75;48.784;9.364;2022-11-27T02:38:14;76.60;;;34.60;;
173;SDS011;75;48.784;9.364;2022-11-27T02:40:50;75.10;;;36.30;;
173;SDS011;75;48.784;9.364;2022-11-27T02:43:30;97.70;;;40.17;;
173;SDS011;75;48.784;9.364;2022-11-27T02:45:59;108.70;;;42.47;;
173;SDS011;75;48.784;9.364;2022-11-27T02:48:29;107.77;;;40.47;;
173;SDS011;75;48.784;9.364;2022-11-27T02:50:57;95.83;;;38.47;;
173;SDS011;75;48.784;9.364;2022-11-27T02:53:36;78.83;;;36.80;;
173;SDS011;75;48.784;9.364;2022-11-27T02:56:05;100.20;;;37.90;;
173;SDS011;75;48.784;9.364;2022-11-27T02:58:33;88.27;;;35.47;;
173;SDS011;75;48.784;9.364;2022-11-27T03:01:03;81.77;;;35.40;;
173;SDS011;75;48.784;9.364;2022-11-27T03:03:36;80.03;;;35.20;;
173;SDS011;75;48.784;9.364;2022-11-27T03:06:08;77.50;;;34.73;;
173;SDS011;75;48.784;9.364;2022-11-27T03:08:45;84.50;;;35.27;;
173;SDS011;75;48.784;9.364;2022-11-27T03:11:15;78.60;;;34.80;;
173;SDS011;75;48.784;9.364;2022-11-27T03:13:44;73.40;;;32.07;;
173;SDS011;75;48.784;9.364;2022-11-27T03:16:22;74.60;;;32.40;;
173;SDS011;75;48.784;9.364;2022-11-27T03:21:28;78.60;;;33.63;;
173;SDS011;75;48.784;9.364;2022-11-27T03:23:56;73.73;;;33.30;;
173;SDS011;75;48.784;9.364;2022-11-27T03:26:24;67.50;;;31.17;;
173;SDS011;75;48.784;9.364;2022-11-27T03:28:52;63.37;;;30.63;;
173;SDS011;75;48.784;9.364;2022-11-27T03:31:20;66.80;;;32.10;;
173;SDS011;75;48.784;9.364;2022-11-27T03:33:49;62.17;;;30.60;;
173;SDS011;75;48.784;9.364;2022-11-27T03:36:17;62.73;;;29.13;;
173;SDS011;75;48.784;9.364;2022-11-27T03:38:45;65.33;;;30.23;;
173;SDS011;75;48.784;9.364;2022-11-27T03:46:47;61.43;;;28.40;;
173;SDS011;75;48.784;9.364;2022-11-27T03:49:22;58.63;;;27.60;;
173;SDS011;75;48.784;9.364;2022-11-27T03:51:51;63.23;;;27.10;;
173;SDS011;75;48.784;9.364;2022-11-27T03:54:25;63.37;;;27.60;;
173;SDS011;75;48.784;9.364;2022-11-27T03:56:58;58.73;;;27.53;;
173;SDS011;75;48.784;9.364;2022-11-27T03:59:30;62.20;;;30.10;;
173;SDS011;75;48.784;9.364;2022-11-27T04:01:59;65.97;;;29.30;;
173;SDS011;75;48.784;9.364;2022-11-27T04:04:26;52.53;;;28.47;;
173;SDS011;75;48.784;9.364;2022-11-27T04:06:53;58.53;;;29.07;;
173;SDS011;75;48.784;9.364;2022-11-27T04:09:21;63.00;;;32.20;;
173;SDS011;75;48.784;9.364;2022-11-27T04:11:48;57.23;;;26.77;;
173;SDS011;75;48.784;9.364;2022-11-27T04:14:15;57.23;;;29.10;;
173;SDS011;75;48.784;9.364;2022-11-27T04:16:43;54.40;;;30.40;;
173;SDS011;75;48.784;9.364;2022-11-27T04:19:10;57.13;;;30.50;;
173;SDS011;75;48.784;9.364;2022-11-27T04:21:37;59.67;;;28.03;;
173;SDS011;75;48.784;9.364;2022-11-27T04:24:05;48.27;;;23.87;;
173;SDS011;75;48.784;9.364;2022-11-27T04:26:32;48.00;;;23.23;;
173;SDS011;75;48.784;9.364;2022-11-27T04:28:59;43.17;;;21.17;;
173;SDS011;75;48.784;9.364;2022-11-27T04:31:27;49.17;;;28.90;;
173;SDS011;75;48.784;9.364;2022-11-27T04:33:54;60.47;;;30.87;;
173;SDS011;75;48.784;9.364;2022-11-27T04:36:21;51.03;;;29.57;;
173;SDS011;75;48.784;9.364;2022-11-27T04:38:49;51.27;;;27.87;;
173;SDS011;75;48.784;9.364;2022-11-27T04:41:16;50.20;;;28.27;;
173;SDS011;75;48.784;9.364;2022-11-27T04:43:43;51.83;;;29.53;;
173;SDS011;75;48.784;9.364;2022-11-27T04:46:11;50.73;;;29.50;;
173;SDS011;75;48.784;9.364;2022-11-27T04:48:38;53.50;;;29.40;;
173;SDS011;75;48.784;9.364;2022-11-27T04:51:05;54.50;;;27.97;;
173;SDS011;75;48.784;9.364;2022-11-27T04:53:33;50.80;;;28.17;;
173;SDS011;75;48.784;9.364;2022-11-27T04:56:00;46.97;;;27.37;;
173;SDS011;75;48.784;9.364;2022-11-27T04:58:27;51.50;;;27.40;;
173;SDS011;75;48.784;9.364;2022-11-27T05:00:55;49.50;;;27.97;;
173;SDS011;75;48.784;9.364;2022-11-27T05:03:22;46.43;;;26.70;;
173;SDS011;75;48.784;9.364;2022-11-27T05:05:53;42.10;;;24.77;;
173;SDS011;75;48.784;9.364;2022-11-27T05:08:22;39.93;;;23.20;;
173;SDS011;75;48.784;9.364;2022-11-27T05:11:02;47.53;;;26.90;;
173;SDS011;75;48.784;9.364;2022-11-27T05:13:30;46.20;;;26.03;;
173;SDS011;75;48.784;9.364;2022-11-27T05:15:57;45.00;;;23.90;;
173;SDS011;75;48.784;9.364;2022-11-27T05:18:25;51.17;;;26.20;;
173;SDS011;75;48.784;9.364;2022-11-27T05:20:59;46.37;;;24.50;;
173;SDS011;75;48.784;9.364;2022-11-27T05:23:27;46.80;;;23.27;;
173;SDS011;75;48.784;9.364;2022-11-27T05:25:54;50.03;;;22.37;;
173;SDS011;75;48.784;9.364;2022-11-27T05:28:22;44.73;;;20.50;;
173;SDS011;75;48.784;9.364;2022-11-27T05:30:49;43.80;;;21.30;;
173;SDS011;75;48.784;9.364;2022-11-27T05:33:17;49.40;;;21.57;;
173;SDS011;75;48.784;9.364;2022-11-27T05:35:44;50.90;;;25.80;;
173;SDS011;75;48.784;9.364;2022-11-27T05:38:12;57.73;;;28.90;;
173;SDS011;75;48.784;9.364;2022-11-27T05:40:39;53.20;;;30.63;;
173;SDS011;75;48.784;9.364;2022-11-27T05:43:06;49.30;;;24.90;;
173;SDS011;75;48.784;9.364;2022-11-27T05:45:35;44.63;;;25.90;;
173;SDS011;75;48.784;9.364;2022-11-27T05:48:03;51.40;;;26.00;;
173;SDS011;75;48.784;9.364;2022-11-27T05:50:30;49.63;;;26.70;;
173;SDS011;75;48.784;9.364;2022-11-27T05:52:57;42.93;;;26.23;;
173;SDS011;75;48.784;9.364;2022-11-27T05:55:25;48.27;;;26.97;;
173;SDS011;75;48.784;9.364;2022-11-27T05:57:52;47.30;;;26.63;;
173;SDS011;75;48.784;9.364;2022-11-27T06:00:20;50.70;;;28.13;;
173;SDS011;75;48.784;9.364;2022-11-27T06:02:47;48.83;;;27.00;;
173;SDS011;75;48.784;9.364;2022-11-27T06:05:14;48.33;;;27.03;;
173;SDS011;75;48.784;9.364;2022-11-27T06:07:42;50.10;;;30.47;;
173;SDS011;75;48.784;9.364;2022-11-27T06:10:09;55.37;;;32.63;;
173;SDS011;75;48.784;9.364;2022-11-27T06:12:36;57.30;;;32.90;;
173;SDS011;75;48.784;9.364;2022-11-27T06:15:04;53.83;;;31.50;;
173;SDS011;75;48.784;9.364;2022-11-27T06:17:31;44.80;;;26.03;;
173;SDS011;75;48.784;9.364;2022-11-27T06:19:59;39.63;;;22.93;;
173;SDS011;75;48.784;9.364;2022-11-27T06:22:26;44.53;;;21.70;;
173;SDS011;75;48.784;9.364;2022-11-27T06:24:53;41.80;;;22.27;;
173;SDS011;75;48.784;9.364;2022-11-27T06:27:21;39.57;;;20.67;;
173;SDS011;75;48.784;9.364;2022-11-27T06:29:48;35.80;;;20.00;;
173;SDS011;75;48.784;9.364;2022-11-27T06:32:15;35.93;;;18.53;;
173;SDS011;75;48.784;9.364;2022-11-27T06:34:43;42.40;;;19.40;;
173;SDS011;75;48.784;9.364;2022-11-27T06:37:10;38.80;;;19.70;;
173;SDS011;75;48.784;9.364;2022-11-27T06:39:37;43.63;;;22.77;;
173;SDS011;75;48.784;9.364;2022-11-27T06:42:05;39.83;;;20.20;;
173;SDS011;75;48.784;9.364;2022-11-27T06:44:32;47.70;;;28.70;;
173;SDS011;75;48.784;9.364;2022-11-27T06:46:59;46.07;;;27.50;;
173;SDS011;75;48.784;9.364;2022-11-27T06:49:27;46.60;;;26.40;;
173;SDS011;75;48.784;9.364;2022-11-27T06:51:54;45.57;;;26.70;;
173;SDS011;75;48.784;9.364;2022-11-27T06:54:21;43.03;;;23.90;;
173;SDS011;75;48.784;9.364;2022-11-27T06:56:49;42.13;;;26.57;;
173;SDS011;75;48.784;9.364;2022-11-27T06:59:17;40.40;;;24.00;;
173;SDS011;75;48.784;9.364;2022-11-27T07:01:44;42.20;;;24.53;;
173;SDS011;75;48.784;9.364;2022-11-27T07:04:12;40.50;;;24.80;;
173;SDS011;75;48.784;9.364;2022-11-27T07:06:40;41.63;;;25.80;;
173;SDS011;75;48.784;9.364;2022-11-27T07:09:08;44.30;;;26.93;;
173;SDS011;75;48.784;9.364;2022-11-27T07:11:37;46.33;;;28.60;;
173;SDS011;75;48.784;9.364;2022-11-27T07:14:04;42.80;;;25.13;;
173;SDS011;75;48.784;9.364;2022-11-27T07:16:33;42.30;;;26.07;;
173;SDS011;75;48.784;9.364;2022-11-27T07:19:02;41.03;;;24.20;;
173;SDS011;75;48.784;9.364;2022-11-27T07:21:30;47.33;;;26.80;;
173;SDS011;75;48.784;9.364;2022-11-27T07:23:57;51.37;;;28.40;;
173;SDS011;75;48.784;9.364;2022-11-27T07:26:26;62.30;;;36.20;;
173;SDS011;75;48.784;9.364;2022-11-27T07:28:54;59.37;;;35.20;;
173;SDS011;75;48.784;9.364;2022-11-27T07:31:23;54.03;;;32.10;;
173;SDS011;75;48.784;9.364;2022-11-27T07:33:51;50.83;;;31.70;;
173;SDS011;75;48.784;9.364;2022-11-27T07:36:20;61.57;;;31.20;;
173;SDS011;75;48.784;9.364;2022-11-27T07:38:48;55.17;;;32.63;;
173;SDS011;75;48.784;9.364;2022-11-27T07:41:15;63.20;;;36.37;;
173;SDS011;75;48.784;9.364;2022-11-27T07:43:43;87.30;;;53.87;;
173;SDS011;75;48.784;9.364;2022-11-27T07:46:14;111.43;;;69.07;;
173;SDS011;75;48.784;9.364;2022-11-27T07:48:42;74.93;;;46.30;;
173;SDS011;75;48.784;9.364;2022-11-27T07:51:10;64.37;;;40.40;;
173;SDS011;75;48.784;9.364;2022-11-27T07:53:39;57.27;;;32.73;;
173;SDS011;75;48.784;9.364;2022-11-27T07:56:07;54.50;;;33.13;;
173;SDS011;75;48.784;9.364;2022-11-27T07:58:35;51.43;;;31.20;;
173;SDS011;75;48.784;9.364;2022-11-27T08:01:06;36.97;;;21.73;;
173;SDS011;75;48.784;9.364;2022-11-27T08:03:34;52.93;;;31.40;;
173;SDS011;75;48.784;9.364;2022-11-27T08:06:02;53.00;;;30.77;;
173;SDS011;75;48.784;9.364;2022-11-27T08:08:29;44.67;;;27.33;;
173;SDS011;75;48.784;9.364;2022-11-27T08:10:57;42.60;;;24.97;;
173;SDS011;75;48.784;9.364;2022-11-27T08:13:24;51.47;;;25.43;;
173;SDS011;75;48.784;9.364;2022-11-27T08:15:51;51.77;;;25.23;;
173;SDS011;75;48.784;9.364;2022-11-27T08:18:19;50.50;;;25.53;;
173;SDS011;75;48.784;9.364;2022-11-27T08:20:46;49.37;;;24.93;;
173;SDS011;75;48.784;9.364;2022-11-27T08:23:14;47.40;;;25.30;;
173;SDS011;75;48.784;9.364;2022-11-27T08:25:41;49.20;;;28.70;;
173;SDS011;75;48.784;9.364;2022-11-27T08:28:08;55.17;;;32.33;;
173;SDS011;75;48.784;9.364;2022-11-27T08:30:36;49.73;;;27.93;;
173;SDS011;75;48.784;9.364;2022-11-27T08:33:03;48.57;;;29.20;;
173;SDS011;75;48.784;9.364;2022-11-27T08:35:30;50.67;;;29.53;;
173;SDS011;75;48.784;9.364;2022-11-27T08:37:58;43.87;;;26.80;;
173;SDS011;75;48.784;9.364;2022-11-27T08:40:25;39.70;;;24.63;;
173;SDS011;75;48.784;9.364;2022-11-27T08:42:52;45.20;;;23.30;;
173;SDS011;75;48.784;9.364;2022-11-27T08:45:20;39.97;;;24.70;;
173;SDS011;75;48.784;9.364;2022-11-27T08:47:47;38.83;;;22.83;;
173;SDS011;75;48.784;9.364;2022-11-27T08:50:14;34.93;;;20.33;;
173;SDS011;75;48.784;9.364;2022-11-27T08:52:42;35.17;;;20.57;;
173;SDS011;75;48.784;9.364;2022-11-27T08:55:09;32.87;;;20.20;;
173;SDS011;75;48.784;9.364;2022-11-27T08:57:36;37.43;;;25.63;;
173;SDS011;75;48.784;9.364;2022-11-27T09:00:04;32.87;;;21.30;;
173;SDS011;75;48.784;9.364;2022-11-27T09:02:32;38.23;;;22.40;;
173;SDS011;75;48.784;9.364;2022-11-27T09:05:00;37.60;;;21.07;;
173;SDS011;75;48.784;9.364;2022-11-27T09:07:28;158.90;;;83.27;;
173;SDS011;75;48.784;9.364;2022-11-27T09:09:55;50.07;;;28.27;;
173;SDS011;75;48.784;9.364;2022-11-27T09:12:22;41.23;;;25.30;;
173;SDS011;75;48.784;9.364;2022-11-27T09:14:50;38.70;;;23.40;;
173;SDS011;75;48.784;9.364;2022-11-27T09:17:17;29.90;;;20.93;;
173;SDS011;75;48.784;9.364;2022-11-27T09:19:44;54.63;;;36.23;;
173;SDS011;75;48.784;9.364;2022-11-27T09:22:12;54.20;;;39.83;;
173;SDS011;75;48.784;9.364;2022-11-27T09:24:39;27.93;;;15.83;;
173;SDS011;75;48.784;9.364;2022-11-27T09:27:06;34.00;;;24.27;;
173;SDS011;75;48.784;9.364;2022-11-27T09:29:34;30.80;;;19.37;;
173;SDS011;75;48.784;9.364;2022-11-27T09:32:01;34.87;;;21.13;;
173;SDS011;75;48.784;9.364;2022-11-27T09:34:29;30.53;;;20.27;;
173;SDS011;75;48.784;9.364;2022-11-27T09:36:56;32.10;;;20.17;;
173;SDS011;75;48.784;9.364;2022-11-27T09:39:24;31.90;;;19.80;;
173;SDS011;75;48.784;9.364;2022-11-27T09:41:56;34.47;;;22.07;;
173;SDS011;75;48.784;9.364;2022-11-27T09:47:47;32.60;;;21.10;;
173;SDS011;75;48.784;9.364;2022-11-27T09:52:53;33.20;;;21.30;;
173;SDS011;75;48.784;9.364;2022-11-27T09:57:53;45.23;;;31.20;;
173;SDS011;75;48.784;9.364;2022-11-27T10:00:22;32.83;;;23.47;;
173;SDS011;75;48.784;9.364;2022-11-27T10:02:49;28.33;;;19.00;;
173;SDS011;75;48.784;9.364;2022-11-27T10:05:24;27.73;;;17.90;;
173;SDS011;75;48.784;9.364;2022-11-27T10:07:56;26.57;;;18.70;;
173;SDS011;75;48.784;9.364;2022-11-27T10:10:37;24.33;;;18.43;;
173;SDS011;75;48.784;9.364;2022-11-27T10:13:10;21.93;;;15.60;;
173;SDS011;75;48.784;9.364;2022-11-27T10:15:47;28.37;;;16.87;;
173;SDS011;75;48.784;9.364;2022-11-27T10:18:31;24.90;;;15.60;;
173;SDS011;75;48.784;9.364;2022-11-27T10:34:00;10.67;;;7.43;;
173;SDS011;75;48.784;9.364;2022-11-27T10:36:42;8.53;;;5.13;;
173;SDS011;75;48.784;9.364;2022-11-27T10:39:21;11.03;;;6.67;;
173;SDS011;75;48.784;9.364;2022-11-27T10:42:00;8.30;;;5.53;;
173;SDS011;75;48.784;9.364;2022-11-27T10:44:34;10.30;;;6.70;;
173;SDS011;75;48.784;9.364;2022-11-27T10:47:06;6.17;;;4.50;;
173;SDS011;75;48.784;9.364;2022-11-27T10:49:34;6.87;;;4.73;;
173;SDS011;75;48.784;9.364;2022-11-27T10:52:09;8.70;;;4.97;;
173;SDS011;75;48.784;9.364;2022-11-27T10:54:44;7.97;;;4.83;;
173;SDS011;75;48.784;9.364;2022-11-27T11:02:31;8.00;;;5.93;;
173;SDS011;75;48.784;9.364;2022-11-27T11:10:24;10.00;;;4.70;;
173;SDS011;75;48.784;9.364;2022-11-27T11:13:05;8.50;;;4.73;;
173;SDS011;75;48.784;9.364;2022-11-27T11:15:32;6.47;;;4.83;;
173;SDS011;75;48.784;9.364;2022-11-27T11:18:00;8.03;;;5.83;;
173;SDS011;75;48.784;9.364;2022-11-27T11:20:27;8.10;;;5.70;;
173;SDS011;75;48.784;9.364;2022-11-27T11:22:55;8.27;;;5.20;;
173;SDS011;75;48.784;9.364;2022-11-27T11:25:22;7.27;;;4.87;;
173;SDS011;75;48.784;9.364;2022-11-27T11:27:50;10.37;;;6.10;;
173;SDS011;75;48.784;9.364;2022-11-27T11:30:24;8.60;;;6.30;;
173;SDS011;75;48.784;9.364;2022-11-27T11:32:58;8.00;;;4.77;;
173;SDS011;75;48.784;9.364;2022-11-27T11:37:54;6.33;;;4.00;;
173;SDS011;75;48.784;9.364;2022-11-27T11:40:58;7.27;;;4.30;;
173;SDS011;75;48.784;9.364;2022-11-27T11:43:26;6.93;;;3.60;;
173;SDS011;75;48.784;9.364;2022-11-27T11:46:01;7.70;;;4.30;;
173;SDS011;75;48.784;9.364;2022-11-27T11:48:29;8.67;;;5.63;;
173;SDS011;75;48.784;9.364;2022-11-27T11:51:06;9.20;;;4.27;;
173;SDS011;75;48.784;9.364;2022-11-27T11:56:46;7.13;;;4.60;;
173;SDS011;75;48.784;9.364;2022-11-27T12:06:53;7.77;;;4.80;;
173;SDS011;75;48.784;9.364;2022-11-27T12:12:13;28.27;;;16.77;;
173;SDS011;75;48.784;9.364;2022-11-27T12:20:05;7.00;;;5.30;;
173;SDS011;75;48.784;9.364;2022-11-27T12:25:32;7.90;;;6.10;;
173;SDS011;75;48.784;9.364;2022-11-27T12:30:40;5.37;;;4.07;;
173;SDS011;75;48.784;9.364;2022-11-27T12:36:11;5.37;;;3.97;;
173;SDS011;75;48.784;9.364;2022-11-27T12:43:36;6.50;;;4.47;;
173;SDS011;75;48.784;9.364;2022-11-27T12:46:12;7.33;;;4.80;;
173;SDS011;75;48.784;9.364;2022-11-27T12:48:45;7.33;;;4.90;;
173;SDS011;75;48.784;9.364;2022-11-27T12:53:46;9.90;;;6.20;;
173;SDS011;75;48.784;9.364;2022-11-27T12:58:50;8.57;;;4.43;;
173;SDS011;75;48.784;9.364;2022-11-27T13:01:21;7.20;;;4.20;;
173;SDS011;75;48.784;9.364;2022-11-27T13:04:02;6.53;;;4.27;;
173;SDS011;75;48.784;9.364;2022-11-27T13:06:31;6.87;;;4.17;;
173;SDS011;75;48.784;9.364;2022-11-27T13:09:02;6.33;;;4.13;;
173;SDS011;75;48.784;9.364;2022-11-27T13:11:37;6.33;;;4.20;;
173;SDS011;75;48.784;9.364;2022-11-27T13:14:39;6.70;;;3.90;;
173;SDS011;75;48.784;9.364;2022-11-27T13:17:02;8.60;;;4.37;;
173;SDS011;75;48.784;9.364;2022-11-27T13:19:35;5.27;;;3.80;;
173;SDS011;75;48.784;9.364;2022-11-27T13:22:08;7.17;;;4.30;;
173;SDS011;75;48.784;9.364;2022-11-27T13:24:36;6.73;;;4.10;;
173;SDS011;75;48.784;9.364;2022-11-27T13:27:12;6.20;;;3.80;;
173;SDS011;75;48.784;9.364;2022-11-27T13:32:24;6.10;;;4.30;;
173;SDS011;75;48.784;9.364;2022-11-27T13:34:52;6.20;;;4.17;;
173;SDS011;75;48.784;9.364;2022-11-27T13:37:28;6.13;;;3.73;;
173;SDS011;75;48.784;9.364;2022-11-27T13:40:19;5.20;;;3.67;;
173;SDS011;75;48.784;9.364;2022-11-27T13:42:44;6.83;;;4.03;;
173;SDS011;75;48.784;9.364;2022-11-27T13:45:24;4.67;;;3.70;;
173;SDS011;75;48.784;9.364;2022-11-27T13:47:52;6.53;;;3.87;;
173;SDS011;75;48.784;9.364;2022-11-27T13:50:21;5.80;;;3.63;;
173;SDS011;75;48.784;9.364;2022-11-27T13:52:53;5.20;;;3.50;;
173;SDS011;75;48.784;9.364;2022-11-27T13:55:29;5.00;;;3.47;;
173;SDS011;75;48.784;9.364;2022-11-27T13:57:57;5.63;;;3.50;;
173;SDS011;75;48.784;9.364;2022-11-27T14:02:58;5.67;;;3.90;;
173;SDS011;75;48.784;9.364;2022-11-27T14:05:39;6.40;;;4.37;;
173;SDS011;75;48.784;9.364;2022-11-27T14:08:23;7.23;;;4.83;;
173;SDS011;75;48.784;9.364;2022-11-27T14:10:53;6.00;;;4.20;;
173;SDS011;75;48.784;9.364;2022-11-27T14:13:21;5.50;;;3.67;;
173;SDS011;75;48.784;9.364;2022-11-27T14:15:56;4.60;;;3.40;;
173;SDS011;75;48.784;9.364;2022-11-27T14:18:27;5.50;;;3.57;;
173;SDS011;75;48.784;9.364;2022-11-27T14:20:59;5.23;;;3.60;;
173;SDS011;75;48.784;9.364;2022-11-27T14:26:05;5.40;;;3.53;;
173;SDS011;75;48.784;9.364;2022-11-27T14:28:34;4.77;;;3.37;;
173;SDS011;75;48.784;9.364;2022-11-27T14:31:02;5.30;;;3.77;;
173;SDS011;75;48.784;9.364;2022-11-27T14:33:31;5.27;;;3.47;;
173;SDS011;75;48.784;9.364;2022-11-27T14:36:03;5.70;;;4.07;;
173;SDS011;75;48.784;9.364;2022-11-27T14:38:31;6.07;;;4.23;;
173;SDS011;75;48.784;9.364;2022-11-27T14:41:06;6.47;;;4.37;;
173;SDS011;75;48.784;9.364;2022-11-27T14:43:34;7.47;;;4.10;;
173;SDS011;75;48.784;9.364;2022-11-27T14:46:02;4.70;;;3.50;;
173;SDS011;75;48.784;9.364;2022-11-27T14:48:50;6.50;;;3.50;;
173;SDS011;75;48.784;9.364;2022-11-27T14:51:27;5.30;;;3.53;;
173;SDS011;75;48.784;9.364;2022-11-27T14:54:06;5.00;;;3.50;;
173;SDS011;75;48.784;9.364;2022-11-27T14:56:37;5.80;;;3.80;;
173;SDS011;75;48.784;9.364;2022-11-27T14:59:05;8.30;;;4.10;;
173;SDS011;75;48.784;9.364;2022-11-27T15:01:36;7.57;;;5.30;;
173;SDS011;75;48.784;9.364;2022-11-27T15:04:05;9.57;;;5.27;;
173;SDS011;75;48.784;9.364;2022-11-27T15:06:42;8.70;;;5.70;;
173;SDS011;75;48.784;9.364;2022-11-27T15:09:16;6.90;;;4.70;;
173;SDS011;75;48.784;9.364;2022-11-27T15:11:44;6.00;;;4.00;;
173;SDS011;75;48.784;9.364;2022-11-27T15:14:16;6.87;;;4.33;;
173;SDS011;75;48.784;9.364;2022-11-27T15:16:44;7.13;;;4.47;;
173;SDS011;75;48.784;9.364;2022-11-27T15:19:12;6.27;;;4.50;;
173;SDS011;75;48.784;9.364;2022-11-27T15:21:43;7.07;;;4.90;;
173;SDS011;75;48.784;9.364;2022-11-27T15:24:28;7.53;;;5.00;;
173;SDS011;75;48.784;9.364;2022-11-27T15:27:05;6.67;;;4.70;;
173;SDS011;75;48.784;9.364;2022-11-27T15:29:34;7.60;;;5.17;;
173;SDS011;75;48.784;9.364;2022-11-27T15:32:03;8.63;;;5.20;;
173;SDS011;75;48.784;9.364;2022-11-27T15:34:30;8.07;;;5.30;;
173;SDS011;75;48.784;9.364;2022-11-27T15:37:00;8.00;;;5.90;;
173;SDS011;75;48.784;9.364;2022-11-27T15:39:35;10.00;;;6.30;;
173;SDS011;75;48.784;9.364;2022-11-27T15:42:07;11.47;;;6.70;;
173;SDS011;75;48.784;9.364;2022-11-27T15:44:35;10.37;;;6.70;;
173;SDS011;75;48.784;9.364;2022-11-27T15:47:03;8.53;;;6.43;;
173;SDS011;75;48.784;9.364;2022-11-27T15:49:31;10.73;;;5.87;;
173;SDS011;75;48.784;9.364;2022-11-27T15:51:59;10.80;;;7.07;;
173;SDS011;75;48.784;9.364;2022-11-27T15:54:26;10.07;;;6.80;;
173;SDS011;75;48.784;9.364;2022-11-27T15:56:54;16.90;;;9.80;;
173;SDS011;75;48.784;9.364;2022-11-27T15:59:21;26.97;;;13.30;;
173;SDS011;75;48.784;9.364;2022-11-27T16:01:50;20.80;;;12.10;;
173;SDS011;75;48.784;9.364;2022-11-27T16:04:17;16.97;;;9.93;;
173;SDS011;75;48.784;9.364;2022-11-27T16:06:44;16.20;;;9.50;;
173;SDS011;75;48.784;9.364;2022-11-27T16:09:12;17.10;;;10.90;;
173;SDS011;75;48.784;9.364;2022-11-27T16:11:39;19.10;;;13.47;;
173;SDS011;75;48.784;9.364;2022-11-27T16:14:06;15.97;;;11.90;;
173;SDS011;75;48.784;9.364;2022-11-27T16:16:34;14.33;;;10.30;;
173;SDS011;75;48.784;9.364;2022-11-27T16:19:02;13.90;;;9.10;;
173;SDS011;75;48.784;9.364;2022-11-27T16:21:31;16.40;;;10.37;;
173;SDS011;75;48.784;9.364;2022-11-27T16:24:00;16.37;;;11.00;;
173;SDS011;75;48.784;9.364;2022-11-27T16:26:27;14.93;;;10.60;;
173;SDS011;75;48.784;9.364;2022-11-27T16:28:55;14.67;;;10.83;;
173;SDS011;75;48.784;9.364;2022-11-27T16:31:22;11.77;;;8.90;;
173;SDS011;75;48.784;9.364;2022-11-27T16:33:50;11.07;;;7.40;;
173;SDS011;75;48.784;9.364;2022-11-27T16:36:18;11.73;;;8.13;;
173;SDS011;75;48.784;9.364;2022-11-27T16:38:46;11.10;;;7.43;;
173;SDS011;75;48.784;9.364;2022-11-27T16:41:15;11.27;;;7.87;;
173;SDS011;75;48.784;9.364;2022-11-27T16:43:46;13.40;;;9.30;;
173;SDS011;75;48.784;9.364;2022-11-27T16:46:15;13.37;;;9.43;;
173;SDS011;75;48.784;9.364;2022-11-27T16:48:44;18.80;;;13.63;;
173;SDS011;75;48.784;9.364;2022-11-27T16:51:15;24.07;;;14.90;;
173;SDS011;75;48.784;9.364;2022-11-27T16:53:44;21.90;;;13.43;;
173;SDS011;75;48.784;9.364;2022-11-27T16:56:13;39.80;;;21.50;;
173;SDS011;75;48.784;9.364;2022-11-27T16:58:41;23.40;;;13.97;;
173;SDS011;75;48.784;9.364;2022-11-27T17:01:10;22.70;;;14.40;;
173;SDS011;75;48.784;9.364;2022-11-27T17:03:38;28.50;;;16.50;;
173;SDS011;75;48.784;9.364;2022-11-27T17:06:06;28.13;;;17.43;;
173;SDS011;75;48.784;9.364;2022-11-27T17:08:33;30.17;;;18.00;;
173;SDS011;75;48.784;9.364;2022-11-27T17:13:40;33.73;;;19.17;;
173;SDS011;75;48.784;9.364;2022-11-27T17:16:08;28.17;;;16.10;;
173;SDS011;75;48.784;9.364;2022-11-27T17:18:36;43.40;;;24.03;;
173;SDS011;75;48.784;9.364;2022-11-27T17:21:08;35.67;;;21.40;;
173;SDS011;75;48.784;9.364;2022-11-27T17:23:36;23.80;;;14.70;;
173;SDS011;75;48.784;9.364;2022-11-27T17:26:07;18.80;;;12.13;;
173;SDS011;75;48.784;9.364;2022-11-27T17:28:34;34.93;;;20.80;;
173;SDS011;75;48.784;9.364;2022-11-27T17:31:03;34.37;;;18.07;;
173;SDS011;75;48.784;9.364;2022-11-27T17:33:34;25.83;;;15.33;;